sensor_id;sensor_type;location;lat;lon;timestamp;pressure;altitude;pressure_sealevel;temperature;humidity
40356;BME280;26061;50.044;19.930;2022-10-30T00:00:14;99133.38;;;19.58;58.35
40356;BME280;26061;50.044;19.930;2022-10-30T00:03:00;99121.72;;;19.05;59.37
40356;BME280;26061;50.044;19.930;2022-10-30T00:05:26;99112.84;;;18.81;61.47
40356;BME280;26061;50.044;19.930;2022-10-30T00:07:54;99107.88;;;18.62;62.02
40356;BME280;26061;50.044;19.930;2022-10-30T00:10:20;99114.78;;;19.33;58.26
40356;BME280;26061;50.044;19.930;2022-10-30T00:12:45;99095.81;;;19.12;57.72
40356;BME280;26061;50.044;19.930;2022-10-30T00:15:11;99111.06;;;19.35;55.70
40356;BME280;26061;50.044;19.930;2022-10-30T00:17:37;99125.94;;;19.60;55.65
40356;BME280;26061;50.044;19.930;2022-10-30T00:20:03;99133.25;;;19.51;56.63
40356;BME280;26061;50.044;19.930;2022-10-30T00:22:29;99123.63;;;19.19;58.93
40356;BME280;26061;50.044;19.930;2022-10-30T00:24:55;99125.03;;;19.30;58.11
40356;BME280;26061;50.044;19.930;2022-10-30T00:27:20;99115.34;;;19.44;57.86
40356;BME280;26061;50.044;19.930;2022-10-30T00:29:46;99122.03;;;19.48;57.69
40356;BME280;26061;50.044;19.930;2022-10-30T00:32:11;99120.72;;;19.44;57.98
40356;BME280;26061;50.044;19.930;2022-10-30T00:34:37;99129.06;;;19.11;59.74
40356;BME280;26061;50.044;19.930;2022-10-30T00:37:03;99124.50;;;19.72;56.96
40356;BME280;26061;50.044;19.930;2022-10-30T00:39:28;99120.13;;;19.71;57.28
40356;BME280;26061;50.044;19.930;2022-10-30T00:41:54;99115.78;;;19.32;58.31
40356;BME280;26061;50.044;19.930;2022-10-30T00:49:51;99109.91;;;18.29;61.33
40356;BME280;26061;50.044;19.930;2022-10-30T00:52:20;99107.13;;;18.14;62.12
40356;BME280;26061;50.044;19.930;2022-10-30T00:54:48;99119.72;;;18.13;63.00
40356;BME280;26061;50.044;19.930;2022-10-30T00:57:14;99119.59;;;17.98;64.14
40356;BME280;26061;50.044;19.930;2022-10-30T00:59:40;99122.28;;;18.69;57.75
40356;BME280;26061;50.044;19.930;2022-10-30T01:02:07;99118.38;;;18.80;57.97
40356;BME280;26061;50.044;19.930;2022-10-30T01:04:35;99111.59;;;18.61;60.43
40356;BME280;26061;50.044;19.930;2022-10-30T01:07:09;99106.78;;;18.48;60.90
40356;BME280;26061;50.044;19.930;2022-10-30T01:09:36;99099.22;;;17.56;64.84
40356;BME280;26061;50.044;19.930;2022-10-30T01:12:03;99088.50;;;17.56;64.86
40356;BME280;26061;50.044;19.930;2022-10-30T01:14:29;99096.88;;;18.17;63.17
40356;BME280;26061;50.044;19.930;2022-10-30T01:30:38;99103.09;;;18.10;63.42
40356;BME280;26061;50.044;19.930;2022-10-30T01:38:38;99097.41;;;17.32;65.77
40356;BME280;26061;50.044;19.930;2022-10-30T01:41:06;99091.44;;;16.98;67.37
40356;BME280;26061;50.044;19.930;2022-10-30T01:43:32;99095.28;;;17.11;67.25
40356;BME280;26061;50.044;19.930;2022-10-30T01:46:22;99106.56;;;17.79;64.74
40356;BME280;26061;50.044;19.930;2022-10-30T01:49:19;99097.09;;;17.03;67.42
40356;BME280;26061;50.044;19.930;2022-10-30T01:54:45;99092.81;;;17.82;64.62
40356;BME280;26061;50.044;19.930;2022-10-30T01:57:34;99098.59;;;17.38;65.55
40356;BME280;26061;50.044;19.930;2022-10-30T02:02:28;99085.22;;;17.14;66.80
40356;BME280;26061;50.044;19.930;2022-10-30T02:04:54;99092.25;;;17.23;66.22
40356;BME280;26061;50.044;19.930;2022-10-30T02:07:20;99088.91;;;16.88;67.14
40356;BME280;26061;50.044;19.930;2022-10-30T02:09:46;99090.50;;;17.54;65.45
40356;BME280;26061;50.044;19.930;2022-10-30T02:12:12;99082.50;;;17.46;65.23
40356;BME280;26061;50.044;19.930;2022-10-30T02:14:41;99085.53;;;17.19;65.96
40356;BME280;26061;50.044;19.930;2022-10-30T02:17:08;99084.22;;;17.31;66.38
40356;BME280;26061;50.044;19.930;2022-10-30T02:19:36;99082.44;;;17.79;64.43
40356;BME280;26061;50.044;19.930;2022-10-30T02:22:02;99081.13;;;17.67;64.77
40356;BME280;26061;50.044;19.930;2022-10-30T02:24:29;99082.06;;;17.90;64.00
40356;BME280;26061;50.044;19.930;2022-10-30T02:26:55;99076.47;;;17.44;65.20
40356;BME280;26061;50.044;19.930;2022-10-30T02:29:25;99076.47;;;17.44;65.20
40356;BME280;26061;50.044;19.930;2022-10-30T02:32:49;60187.28;;;-145.63;100.00
40356;BME280;26061;50.044;19.930;2022-10-30T02:36:13;60187.28;;;-145.63;100.00
40356;BME280;26061;50.044;19.930;2022-10-30T02:39:41;60187.28;;;-145.63;100.00
40356;BME280;26061;50.044;19.930;2022-10-30T02:43:05;60187.28;;;-145.63;100.00
40356;BME280;26061;50.044;19.930;2022-10-30T02:45:38;60187.28;;;-145.63;63.75
40356;BME280;26061;50.044;19.930;2022-10-30T02:49:02;60187.28;;;-145.63;100.00
40356;BME280;26061;50.044;19.930;2022-10-30T02:51:37;60187.28;;;-145.63;100.00
40356;BME280;26061;50.044;19.930;2022-10-30T02:55:01;60187.28;;;-145.63;100.00
40356;BME280;26061;50.044;19.930;2022-10-30T02:58:25;60187.28;;;-145.63;100.00
40356;BME280;26061;50.044;19.930;2022-10-30T03:01:18;60187.28;;;-145.63;100.00
40356;BME280;26061;50.044;19.930;2022-10-30T03:04:42;60187.28;;;-145.63;100.00
40356;BME280;26061;50.044;19.930;2022-10-30T03:07:19;60187.28;;;-145.63;100.00
40356;BME280;26061;50.044;19.930;2022-10-30T03:09:52;99076.47;;;17.44;65.20
40356;BME280;26061;50.044;19.930;2022-10-30T03:13:16;60187.28;;;-145.63;100.00
40356;BME280;26061;50.044;19.930;2022-10-30T03:16:30;60187.28;;;-145.63;100.00
40356;BME280;26061;50.044;19.930;2022-10-30T03:19:53;60187.28;;;-145.63;100.00
40356;BME280;26061;50.044;19.930;2022-10-30T03:23:17;60187.28;;;-145.63;100.00
40356;BME280;26061;50.044;19.930;2022-10-30T03:26:42;60187.28;;;-145.63;100.00
40356;BME280;26061;50.044;19.930;2022-10-30T03:30:06;60187.28;;;-145.63;100.00
40356;BME280;26061;50.044;19.930;2022-10-30T03:33:13;96756.47;;;17.44;65.20
40356;BME280;26061;50.044;19.930;2022-10-30T03:36:11;60187.28;;;-145.63;100.00
40356;BME280;26061;50.044;19.930;2022-10-30T03:39:36;60187.28;;;-145.63;100.00
40356;BME280;26061;50.044;19.930;2022-10-30T03:43:01;60187.28;;;-145.63;100.00
40356;BME280;26061;50.044;19.930;2022-10-30T03:45:28;60187.28;;;-145.63;100.00
40356;BME280;26061;50.044;19.930;2022-10-30T03:47:53;60187.28;;;-145.63;100.00
40356;BME280;26061;50.044;19.930;2022-10-30T03:50:19;60187.28;;;-145.63;100.00
40356;BME280;26061;50.044;19.930;2022-10-30T03:52:45;60187.28;;;-145.63;100.00
40356;BME280;26061;50.044;19.930;2022-10-30T03:55:11;60187.28;;;-145.63;100.00
40356;BME280;26061;50.044;19.930;2022-10-30T03:57:37;60187.28;;;-145.63;100.00
40356;BME280;26061;50.044;19.930;2022-10-30T04:00:04;60187.28;;;-145.63;100.00
40356;BME280;26061;50.044;19.930;2022-10-30T04:02:30;60187.28;;;-145.63;100.00
40356;BME280;26061;50.044;19.930;2022-10-30T04:04:55;60187.28;;;-145.63;100.00
40356;BME280;26061;50.044;19.930;2022-10-30T04:07:21;60187.28;;;-145.63;100.00
40356;BME280;26061;50.044;19.930;2022-10-30T04:09:47;60187.28;;;-145.63;100.00
40356;BME280;26061;50.044;19.930;2022-10-30T04:12:12;60187.28;;;-145.63;100.00
40356;BME280;26061;50.044;19.930;2022-10-30T04:14:38;60187.28;;;-145.63;100.00
40356;BME280;26061;50.044;19.930;2022-10-30T04:17:04;60187.28;;;-145.63;100.00
40356;BME280;26061;50.044;19.930;2022-10-30T04:19:30;60187.28;;;-145.63;100.00
40356;BME280;26061;50.044;19.930;2022-10-30T04:21:56;60187.28;;;-145.63;100.00
40356;BME280;26061;50.044;19.930;2022-10-30T04:24:22;60187.28;;;-145.63;100.00
40356;BME280;26061;50.044;19.930;2022-10-30T04:26:48;60187.28;;;-145.63;100.00
40356;BME280;26061;50.044;19.930;2022-10-30T04:29:13;60187.28;;;-145.63;100.00
40356;BME280;26061;50.044;19.930;2022-10-30T04:31:39;60187.28;;;-145.63;100.00
40356;BME280;26061;50.044;19.930;2022-10-30T04:34:05;60187.28;;;-145.63;100.00
40356;BME280;26061;50.044;19.930;2022-10-30T04:36:30;60187.28;;;-145.63;100.00
40356;BME280;26061;50.044;19.930;2022-10-30T04:38:59;60187.28;;;-145.63;100.00
40356;BME280;26061;50.044;19.930;2022-10-30T04:41:25;60187.28;;;-145.63;100.00
40356;BME280;26061;50.044;19.930;2022-10-30T04:43:51;60187.28;;;-145.63;100.00
40356;BME280;26061;50.044;19.930;2022-10-30T04:46:17;60187.28;;;-145.63;100.00
40356;BME280;26061;50.044;19.930;2022-10-30T04:48:43;60187.28;;;-145.63;100.00
40356;BME280;26061;50.044;19.930;2022-10-30T04:51:09;60187.28;;;-145.63;100.00
40356;BME280;26061;50.044;19.930;2022-10-30T04:53:37;60187.28;;;-145.63;100.00
40356;BME280;26061;50.044;19.930;2022-10-30T04:56:03;60187.28;;;-145.63;100.00
40356;BME280;26061;50.044;19.930;2022-10-30T04:58:29;60187.28;;;-145.63;100.00
40356;BME280;26061;50.044;19.930;2022-10-30T05:00:54;60187.28;;;-145.63;100.00
40356;BME280;26061;50.044;19.930;2022-10-30T05:03:23;60187.28;;;-145.63;100.00
40356;BME280;26061;50.044;19.930;2022-10-30T05:06:00;60187.28;;;-145.63;100.00
40356;BME280;26061;50.044;19.930;2022-10-30T05:08:28;60187.28;;;-145.63;100.00
40356;BME280;26061;50.044;19.930;2022-10-30T05:10:54;60187.28;;;-145.63;100.00
40356;BME280;26061;50.044;19.930;2022-10-30T05:13:20;60187.28;;;-145.63;100.00
40356;BME280;26061;50.044;19.930;2022-10-30T05:15:46;60187.28;;;-145.63;100.00
40356;BME280;26061;50.044;19.930;2022-10-30T05:18:11;60187.28;;;-145.63;100.00
40356;BME280;26061;50.044;19.930;2022-10-30T05:20:37;60187.28;;;-145.63;100.00
40356;BME280;26061;50.044;19.930;2022-10-30T05:23:03;60187.28;;;-145.63;100.00
40356;BME280;26061;50.044;19.930;2022-10-30T05:25:29;60187.28;;;-145.63;100.00
40356;BME280;26061;50.044;19.930;2022-10-30T05:28:03;60187.28;;;-145.63;100.00
40356;BME280;26061;50.044;19.930;2022-10-30T05:30:30;60187.28;;;-145.63;100.00
40356;BME280;26061;50.044;19.930;2022-10-30T05:33:01;60187.28;;;-145.63;100.00
40356;BME280;26061;50.044;19.930;2022-10-30T05:35:28;60187.28;;;-145.63;100.00
40356;BME280;26061;50.044;19.930;2022-10-30T05:37:54;60187.28;;;-145.63;100.00
40356;BME280;26061;50.044;19.930;2022-10-30T05:40:20;60187.28;;;-145.63;100.00
40356;BME280;26061;50.044;19.930;2022-10-30T05:42:49;60187.28;;;-145.63;100.00
40356;BME280;26061;50.044;19.930;2022-10-30T05:45:15;60187.28;;;-145.63;100.00
40356;BME280;26061;50.044;19.930;2022-10-30T05:47:41;60187.28;;;-145.63;100.00
40356;BME280;26061;50.044;19.930;2022-10-30T05:50:08;60187.28;;;-145.63;100.00
40356;BME280;26061;50.044;19.930;2022-10-30T05:52:34;60187.28;;;-145.63;100.00
40356;BME280;26061;50.044;19.930;2022-10-30T05:54:59;60187.28;;;-145.63;100.00
40356;BME280;26061;50.044;19.930;2022-10-30T05:57:29;60187.28;;;-145.63;100.00
40356;BME280;26061;50.044;19.930;2022-10-30T05:59:56;60187.28;;;-145.63;100.00
40356;BME280;26061;50.044;19.930;2022-10-30T06:02:22;60187.28;;;-145.63;100.00
40356;BME280;26061;50.044;19.930;2022-10-30T06:04:48;60187.28;;;-145.63;100.00
40356;BME280;26061;50.044;19.930;2022-10-30T06:07:13;60187.28;;;-145.63;100.00
40356;BME280;26061;50.044;19.930;2022-10-30T06:09:39;60187.28;;;-145.63;100.00
40356;BME280;26061;50.044;19.930;2022-10-30T06:12:05;60187.28;;;-145.63;100.00
40356;BME280;26061;50.044;19.930;2022-10-30T06:14:31;60187.28;;;-145.63;100.00
40356;BME280;26061;50.044;19.930;2022-10-30T06:16:56;60187.28;;;-145.63;100.00
40356;BME280;26061;50.044;19.930;2022-10-30T06:19:22;60187.28;;;-145.63;100.00
40356;BME280;26061;50.044;19.930;2022-10-30T06:21:48;60187.28;;;-145.63;100.00
40356;BME280;26061;50.044;19.930;2022-10-30T06:24:13;60187.28;;;-145.63;100.00
40356;BME280;26061;50.044;19.930;2022-10-30T06:26:39;60187.28;;;-145.63;100.00
40356;BME280;26061;50.044;19.930;2022-10-30T06:29:05;60187.28;;;-145.63;100.00
40356;BME280;26061;50.044;19.930;2022-10-30T06:31:30;60187.28;;;-145.63;100.00
40356;BME280;26061;50.044;19.930;2022-10-30T06:33:56;60187.28;;;-145.63;100.00
40356;BME280;26061;50.044;19.930;2022-10-30T06:36:22;60187.28;;;-145.63;100.00
40356;BME280;26061;50.044;19.930;2022-10-30T06:38:47;60187.28;;;-145.63;100.00
40356;BME280;26061;50.044;19.930;2022-10-30T06:41:13;60187.28;;;-145.63;100.00
40356;BME280;26061;50.044;19.930;2022-10-30T06:43:38;60187.28;;;-145.63;100.00
40356;BME280;26061;50.044;19.930;2022-10-30T06:46:04;60187.28;;;-145.63;100.00
40356;BME280;26061;50.044;19.930;2022-10-30T06:48:30;60187.28;;;-145.63;100.00
40356;BME280;26061;50.044;19.930;2022-10-30T06:50:57;60187.28;;;-145.63;100.00
40356;BME280;26061;50.044;19.930;2022-10-30T06:53:23;60187.28;;;-145.63;100.00
40356;BME280;26061;50.044;19.930;2022-10-30T06:55:54;60187.28;;;-145.63;100.00
40356;BME280;26061;50.044;19.930;2022-10-30T06:58:21;60187.28;;;-145.63;100.00
40356;BME280;26061;50.044;19.930;2022-10-30T07:00:46;60187.28;;;-145.63;100.00
40356;BME280;26061;50.044;19.930;2022-10-30T07:03:12;60187.28;;;-145.63;100.00
40356;BME280;26061;50.044;19.930;2022-10-30T07:05:37;60187.28;;;-145.63;100.00
40356;BME280;26061;50.044;19.930;2022-10-30T07:08:03;60187.28;;;-145.63;100.00
40356;BME280;26061;50.044;19.930;2022-10-30T07:10:29;60187.28;;;-145.63;100.00
40356;BME280;26061;50.044;19.930;2022-10-30T07:12:55;60187.28;;;-145.63;100.00
40356;BME280;26061;50.044;19.930;2022-10-30T07:15:21;60187.28;;;-145.63;100.00
40356;BME280;26061;50.044;19.930;2022-10-30T07:17:59;60187.28;;;-145.63;100.00
40356;BME280;26061;50.044;19.930;2022-10-30T07:20:26;60187.28;;;-145.63;100.00
40356;BME280;26061;50.044;19.930;2022-10-30T07:22:53;60187.28;;;-145.63;100.00
40356;BME280;26061;50.044;19.930;2022-10-30T07:25:19;60187.28;;;-145.63;100.00
40356;BME280;26061;50.044;19.930;2022-10-30T07:27:50;60187.28;;;-145.63;100.00
40356;BME280;26061;50.044;19.930;2022-10-30T07:30:21;60187.28;;;-145.63;100.00
40356;BME280;26061;50.044;19.930;2022-10-30T07:32:55;60187.28;;;-145.63;100.00
40356;BME280;26061;50.044;19.930;2022-10-30T07:35:22;60187.28;;;-145.63;100.00
40356;BME280;26061;50.044;19.930;2022-10-30T07:37:47;60187.28;;;-145.63;100.00
40356;BME280;26061;50.044;19.930;2022-10-30T07:40:13;60187.28;;;-145.63;100.00
40356;BME280;26061;50.044;19.930;2022-10-30T07:42:38;60187.28;;;-145.63;100.00
40356;BME280;26061;50.044;19.930;2022-10-30T07:45:04;60187.28;;;-145.63;100.00
40356;BME280;26061;50.044;19.930;2022-10-30T07:47:30;60187.28;;;-145.63;100.00
40356;BME280;26061;50.044;19.930;2022-10-30T07:49:56;60187.28;;;-145.63;100.00
40356;BME280;26061;50.044;19.930;2022-10-30T07:52:21;60187.28;;;-145.63;100.00
40356;BME280;26061;50.044;19.930;2022-10-30T07:54:47;60187.28;;;-145.63;100.00
40356;BME280;26061;50.044;19.930;2022-10-30T07:57:13;60187.28;;;-145.63;100.00
40356;BME280;26061;50.044;19.930;2022-10-30T07:59:38;60187.28;;;-145.63;100.00
40356;BME280;26061;50.044;19.930;2022-10-30T08:02:04;60187.28;;;-145.63;100.00
40356;BME280;26061;50.044;19.930;2022-10-30T08:04:30;60187.28;;;-145.63;100.00
40356;BME280;26061;50.044;19.930;2022-10-30T08:06:55;60187.28;;;-145.63;100.00
40356;BME280;26061;50.044;19.930;2022-10-30T08:09:21;60187.28;;;-145.63;100.00
40356;BME280;26061;50.044;19.930;2022-10-30T08:11:47;60187.28;;;-145.63;100.00
40356;BME280;26061;50.044;19.930;2022-10-30T08:14:12;60187.28;;;-145.63;100.00
40356;BME280;26061;50.044;19.930;2022-10-30T08:16:38;60187.28;;;-145.63;100.00
40356;BME280;26061;50.044;19.930;2022-10-30T08:19:04;60187.28;;;-145.63;100.00
40356;BME280;26061;50.044;19.930;2022-10-30T08:21:29;60187.28;;;-145.63;100.00
40356;BME280;26061;50.044;19.930;2022-10-30T08:23:55;60187.28;;;-145.63;100.00
40356;BME280;26061;50.044;19.930;2022-10-30T08:26:21;60187.28;;;-145.63;100.00
40356;BME280;26061;50.044;19.930;2022-10-30T08:28:46;60187.28;;;-145.63;100.00
40356;BME280;26061;50.044;19.930;2022-10-30T08:31:12;60187.28;;;-145.63;100.00
40356;BME280;26061;50.044;19.930;2022-10-30T08:33:37;60187.28;;;-145.63;100.00
40356;BME280;26061;50.044;19.930;2022-10-30T08:36:04;60187.28;;;-145.63;100.00
40356;BME280;26061;50.044;19.930;2022-10-30T08:38:31;60187.28;;;-145.63;100.00
40356;BME280;26061;50.044;19.930;2022-10-30T08:40:57;60187.28;;;-145.63;100.00
40356;BME280;26061;50.044;19.930;2022-10-30T08:43:22;60187.28;;;-145.63;100.00
40356;BME280;26061;50.044;19.930;2022-10-30T08:45:49;60187.28;;;-145.63;100.00
40356;BME280;26061;50.044;19.930;2022-10-30T08:48:15;60187.28;;;-145.63;100.00
40356;BME280;26061;50.044;19.930;2022-10-30T08:50:42;60187.28;;;-145.63;100.00
40356;BME280;26061;50.044;19.930;2022-10-30T08:53:11;60187.28;;;-145.63;100.00
40356;BME280;26061;50.044;19.930;2022-10-30T08:55:37;60187.28;;;-145.63;100.00
40356;BME280;26061;50.044;19.930;2022-10-30T08:58:03;60187.28;;;-145.63;100.00
40356;BME280;26061;50.044;19.930;2022-10-30T09:00:29;60187.28;;;-145.63;100.00
40356;BME280;26061;50.044;19.930;2022-10-30T09:02:55;60187.28;;;-145.63;100.00
40356;BME280;26061;50.044;19.930;2022-10-30T09:05:21;60187.28;;;-145.63;100.00
40356;BME280;26061;50.044;19.930;2022-10-30T09:07:46;60187.28;;;-145.63;100.00
40356;BME280;26061;50.044;19.930;2022-10-30T09:10:13;60187.28;;;-145.63;100.00
40356;BME280;26061;50.044;19.930;2022-10-30T09:12:39;99093.03;;;34.24;25.93
40356;BME280;26061;50.044;19.930;2022-10-30T09:15:06;60187.28;;;-145.63;100.00
40356;BME280;26061;50.044;19.930;2022-10-30T09:17:33;60187.28;;;-145.63;100.00
40356;BME280;26061;50.044;19.930;2022-10-30T09:19:59;98812.50;;;-55.39;25.93
40356;BME280;26061;50.044;19.930;2022-10-30T09:22:25;99089.56;;;33.93;26.90
40356;BME280;26061;50.044;19.930;2022-10-30T09:24:51;99083.88;;;31.72;29.83
40356;BME280;26061;50.044;19.930;2022-10-30T09:27:16;99087.59;;;32.55;28.88
40356;BME280;26061;50.044;19.930;2022-10-30T09:29:42;99082.13;;;31.98;28.96
40356;BME280;26061;50.044;19.930;2022-10-30T09:32:08;99086.28;;;32.05;29.31
40356;BME280;26061;50.044;19.930;2022-10-30T09:34:37;60187.28;;;-145.63;100.00
40356;BME280;26061;50.044;19.930;2022-10-30T09:37:04;60187.28;;;-145.63;100.00
40356;BME280;26061;50.044;19.930;2022-10-30T09:39:29;60187.28;;;-145.63;100.00
40356;BME280;26061;50.044;19.930;2022-10-30T10:00:23;60187.28;;;-145.63;100.00
40356;BME280;26061;50.044;19.930;2022-10-30T10:05:26;99087.03;;;32.48;29.06
40356;BME280;26061;50.044;19.930;2022-10-30T10:08:00;99079.97;;;32.78;28.72
40356;BME280;26061;50.044;19.930;2022-10-30T10:13:14;99070.97;;;32.15;30.09
40356;BME280;26061;50.044;19.930;2022-10-30T10:16:12;99067.59;;;32.70;29.23
40356;BME280;26061;50.044;19.930;2022-10-30T10:18:44;99067.88;;;33.46;28.18
40356;BME280;26061;50.044;19.930;2022-10-30T10:21:20;99069.28;;;33.12;29.27
40356;BME280;26061;50.044;19.930;2022-10-30T10:23:49;99062.72;;;32.09;30.31
40356;BME280;26061;50.044;19.930;2022-10-30T10:26:43;99052.56;;;31.25;31.78
40356;BME280;26061;50.044;19.930;2022-10-30T10:29:52;99054.84;;;32.33;30.08
40356;BME280;26061;50.044;19.930;2022-10-30T10:45:54;99054.63;;;34.98;26.89
40356;BME280;26061;50.044;19.930;2022-10-30T10:51:06;60187.28;;;-145.63;100.00
40356;BME280;26061;50.044;19.930;2022-10-30T10:54:25;60187.28;;;-145.63;100.00
40356;BME280;26061;50.044;19.930;2022-10-30T10:56:50;99056.34;;;32.87;29.58
40356;BME280;26061;50.044;19.930;2022-10-30T10:59:22;99061.78;;;34.54;28.05
40356;BME280;26061;50.044;19.930;2022-10-30T11:02:22;99051.88;;;33.83;29.26
40356;BME280;26061;50.044;19.930;2022-10-30T11:04:42;99063.25;;;32.11;30.90
40356;BME280;26061;50.044;19.930;2022-10-30T11:09:43;99065.56;;;36.63;25.69
40356;BME280;26061;50.044;19.930;2022-10-30T11:12:10;99051.69;;;36.68;24.55
40356;BME280;26061;50.044;19.930;2022-10-30T11:14:36;99057.19;;;35.24;26.12
40356;BME280;26061;50.044;19.930;2022-10-30T11:19:55;99058.13;;;35.96;25.16
40356;BME280;26061;50.044;19.930;2022-10-30T11:22:36;60187.28;;;-145.63;100.00
40356;BME280;26061;50.044;19.930;2022-10-30T11:25:19;60187.28;;;-145.63;100.00
40356;BME280;26061;50.044;19.930;2022-10-30T11:27:53;60187.28;;;-145.63;100.00
40356;BME280;26061;50.044;19.930;2022-10-30T11:30:22;60187.28;;;-145.63;100.00
40356;BME280;26061;50.044;19.930;2022-10-30T11:32:49;60187.28;;;-145.63;100.00
40356;BME280;26061;50.044;19.930;2022-10-30T11:35:18;60187.28;;;-145.63;100.00
40356;BME280;26061;50.044;19.930;2022-10-30T11:37:45;60187.28;;;-145.63;100.00
40356;BME280;26061;50.044;19.930;2022-10-30T11:42:41;60187.28;;;-145.63;100.00
40356;BME280;26061;50.044;19.930;2022-10-30T11:45:14;60187.28;;;-145.63;100.00
40356;BME280;26061;50.044;19.930;2022-10-30T11:47:41;60187.28;;;-145.63;100.00
40356;BME280;26061;50.044;19.930;2022-10-30T11:50:17;60187.28;;;-145.63;100.00
40356;BME280;26061;50.044;19.930;2022-10-30T11:52:44;60187.28;;;-145.63;100.00
40356;BME280;26061;50.044;19.930;2022-10-30T11:55:23;60187.28;;;-145.63;100.00
40356;BME280;26061;50.044;19.930;2022-10-30T11:57:54;60187.28;;;-145.63;100.00
40356;BME280;26061;50.044;19.930;2022-10-30T12:00:25;60187.28;;;-145.63;100.00
40356;BME280;26061;50.044;19.930;2022-10-30T12:02:54;60187.28;;;-145.63;100.00
40356;BME280;26061;50.044;19.930;2022-10-30T12:05:40;60187.28;;;-145.63;100.00
40356;BME280;26061;50.044;19.930;2022-10-30T12:10:55;60187.28;;;-145.63;100.00
40356;BME280;26061;50.044;19.930;2022-10-30T12:13:20;60187.28;;;-145.63;100.00
40356;BME280;26061;50.044;19.930;2022-10-30T12:16:03;60187.28;;;-145.63;100.00
40356;BME280;26061;50.044;19.930;2022-10-30T12:18:30;99020.13;;;35.35;25.17
40356;BME280;26061;50.044;19.930;2022-10-30T12:20:57;99019.88;;;34.18;27.11
40356;BME280;26061;50.044;19.930;2022-10-30T12:23:25;99015.50;;;31.50;30.54
40356;BME280;26061;50.044;19.930;2022-10-30T12:25:53;99012.72;;;31.92;30.94
40356;BME280;26061;50.044;19.930;2022-10-30T12:28:51;60187.28;;;-145.63;100.00
40356;BME280;26061;50.044;19.930;2022-10-30T12:31:45;60187.28;;;-145.63;100.00
40356;BME280;26061;50.044;19.930;2022-10-30T12:34:37;60187.28;;;-145.63;100.00
40356;BME280;26061;50.044;19.930;2022-10-30T12:37:28;60187.28;;;-145.63;100.00
40356;BME280;26061;50.044;19.930;2022-10-30T12:40:29;60187.28;;;-145.63;100.00
40356;BME280;26061;50.044;19.930;2022-10-30T12:44:13;60187.28;;;-145.63;100.00
40356;BME280;26061;50.044;19.930;2022-10-30T12:47:48;60187.28;;;-145.63;100.00
40356;BME280;26061;50.044;19.930;2022-10-30T12:51:04;60187.28;;;-145.63;100.00
40356;BME280;26061;50.044;19.930;2022-10-30T12:58:27;60187.28;;;-145.63;100.00
40356;BME280;26061;50.044;19.930;2022-10-30T13:01:59;60187.28;;;-145.63;100.00
40356;BME280;26061;50.044;19.930;2022-10-30T13:05:31;60187.28;;;-145.63;100.00
40356;BME280;26061;50.044;19.930;2022-10-30T13:09:26;60187.28;;;-145.63;100.00
40356;BME280;26061;50.044;19.930;2022-10-30T13:12:56;60187.28;;;-145.63;100.00
40356;BME280;26061;50.044;19.930;2022-10-30T13:16:34;60187.28;;;-145.63;100.00
40356;BME280;26061;50.044;19.930;2022-10-30T13:19:10;60187.28;;;-145.63;100.00
40356;BME280;26061;50.044;19.930;2022-10-30T13:22:54;60187.28;;;-145.63;100.00
40356;BME280;26061;50.044;19.930;2022-10-30T13:26:40;60187.28;;;-145.63;100.00
40356;BME280;26061;50.044;19.930;2022-10-30T13:37:07;60187.28;;;-145.63;100.00
40356;BME280;26061;50.044;19.930;2022-10-30T13:40:48;60187.28;;;-145.63;100.00
40356;BME280;26061;50.044;19.930;2022-10-30T13:48:15;60187.28;;;-145.63;100.00
40356;BME280;26061;50.044;19.930;2022-10-30T13:53:59;60187.28;;;-145.63;100.00
40356;BME280;26061;50.044;19.930;2022-10-30T13:57:27;60187.28;;;-145.63;100.00
40356;BME280;26061;50.044;19.930;2022-10-30T14:01:00;60187.28;;;-145.63;100.00
40356;BME280;26061;50.044;19.930;2022-10-30T14:04:51;60187.28;;;-145.63;100.00
40356;BME280;26061;50.044;19.930;2022-10-30T14:08:41;60187.28;;;-145.63;100.00
40356;BME280;26061;50.044;19.930;2022-10-30T14:16:00;60187.28;;;-145.63;100.00
40356;BME280;26061;50.044;19.930;2022-10-30T14:19:26;60187.28;;;-145.63;100.00
40356;BME280;26061;50.044;19.930;2022-10-30T14:23:04;60187.28;;;-145.63;100.00
40356;BME280;26061;50.044;19.930;2022-10-30T14:26:29;60187.28;;;-145.63;100.00
40356;BME280;26061;50.044;19.930;2022-10-30T14:29:46;60187.28;;;-145.63;100.00
40356;BME280;26061;50.044;19.930;2022-10-30T14:33:32;60187.28;;;-145.63;100.00
40356;BME280;26061;50.044;19.930;2022-10-30T14:41:00;60187.28;;;-145.63;100.00
40356;BME280;26061;50.044;19.930;2022-10-30T14:51:41;60187.28;;;-145.63;100.00
40356;BME280;26061;50.044;19.930;2022-10-30T14:55:25;60187.28;;;-145.63;100.00
40356;BME280;26061;50.044;19.930;2022-10-30T15:10:38;60187.28;;;-145.63;100.00
40356;BME280;26061;50.044;19.930;2022-10-30T15:17:47;60187.28;;;-145.63;100.00
40356;BME280;26061;50.044;19.930;2022-10-30T15:21:17;60187.28;;;-145.63;100.00
40356;BME280;26061;50.044;19.930;2022-10-30T15:24:46;60187.28;;;-145.63;100.00
40356;BME280;26061;50.044;19.930;2022-10-30T15:28:14;60187.28;;;-145.63;100.00
40356;BME280;26061;50.044;19.930;2022-10-30T15:32:02;60187.28;;;-145.63;100.00
40356;BME280;26061;50.044;19.930;2022-10-30T15:35:37;60187.28;;;-145.63;100.00
40356;BME280;26061;50.044;19.930;2022-10-30T15:42:45;60187.28;;;-145.63;100.00